createdAt,value
2018-09-26T00:01:05.401Z,66.43
2018-09-26T00:03:39.554Z,66.23
2018-09-26T00:06:06.766Z,66.58
2018-09-26T00:08:34.023Z,66.84
2018-09-26T00:11:01.215Z,67.14
2018-09-26T00:13:28.340Z,67.64
2018-09-26T00:15:55.503Z,67.16
2018-09-26T00:18:22.669Z,66.91
2018-09-26T00:20:49.808Z,66.92
2018-09-26T00:23:17.013Z,66.90
2018-09-26T00:25:44.232Z,66.83
2018-09-26T00:28:11.438Z,66.42
2018-09-26T00:30:38.571Z,66.59
2018-09-26T00:33:05.756Z,66.95
2018-09-26T00:35:33.832Z,67.12
2018-09-26T00:38:01.042Z,67.53
2018-09-26T00:40:28.293Z,67.29
2018-09-26T00:42:56.353Z,66.95
2018-09-26T00:45:23.655Z,67.68
2018-09-26T00:47:51.009Z,67.60
2018-09-26T00:50:18.117Z,67.52
2018-09-26T00:52:45.341Z,68.04
2018-09-26T00:55:12.451Z,67.63
2018-09-26T00:57:39.710Z,67.42
2018-09-26T01:00:07.675Z,67.08
2018-09-26T01:02:34.908Z,67.52
2018-09-26T01:05:02.441Z,67.33
2018-09-26T01:07:29.647Z,67.71
2018-09-26T01:09:56.885Z,67.51
2018-09-26T01:12:24.171Z,67.84
2018-09-26T01:14:51.381Z,68.01
2018-09-26T01:17:18.570Z,68.05
2018-09-26T01:19:45.719Z,67.93
2018-09-26T01:22:12.926Z,68.20
2018-09-26T01:24:40.220Z,67.54
2018-09-26T01:27:07.638Z,67.70
2018-09-26T01:29:34.809Z,68.52
2018-09-26T01:32:02.099Z,69.24
2018-09-26T01:34:29.357Z,69.20
2018-09-26T01:36:56.733Z,69.60
2018-09-26T01:39:24.217Z,68.77
2018-09-26T01:41:51.402Z,68.79
2018-09-26T01:44:18.545Z,68.08
2018-09-26T01:46:45.971Z,68.12
2018-09-26T01:49:13.237Z,68.46
2018-09-26T01:51:40.401Z,68.24
2018-09-26T01:54:07.638Z,68.36
2018-09-26T01:56:34.846Z,67.57
2018-09-26T01:59:02.096Z,67.50
2018-09-26T02:01:29.340Z,68.14
2018-09-26T02:03:56.599Z,68.29
2018-09-26T02:06:23.884Z,68.10
2018-09-26T02:08:51.150Z,68.08
2018-09-26T02:11:18.394Z,67.87
2018-09-26T02:13:45.842Z,68.19
2018-09-26T02:16:13.137Z,68.22
2018-09-26T02:18:40.277Z,67.72
2018-09-26T02:21:07.507Z,67.57
2018-09-26T02:23:34.721Z,67.14
2018-09-26T02:26:01.943Z,67.42
2018-09-26T02:28:29.148Z,67.15
2018-09-26T02:30:56.312Z,67.54
2018-09-26T02:33:23.827Z,68.33
2018-09-26T02:35:51.054Z,68.47
2018-09-26T02:38:18.216Z,67.94
2018-09-26T02:40:45.430Z,67.56
2018-09-26T02:43:12.598Z,67.82
2018-09-26T02:45:39.759Z,68.15
2018-09-26T02:48:06.945Z,68.51
2018-09-26T02:50:34.172Z,68.14
2018-09-26T02:53:01.372Z,68.10
2018-09-26T02:55:28.531Z,68.12
2018-09-26T02:57:55.685Z,68.47
2018-09-26T03:00:22.814Z,68.62
2018-09-26T03:02:49.972Z,68.69
2018-09-26T03:05:17.091Z,68.63
2018-09-26T03:07:44.312Z,68.37
2018-09-26T03:10:11.424Z,69.03
2018-09-26T03:12:38.574Z,69.84
2018-09-26T03:15:05.698Z,69.73
2018-09-26T03:17:32.860Z,70.27
2018-09-26T03:20:00.044Z,71.10
2018-09-26T03:22:27.163Z,70.41
2018-09-26T03:24:54.302Z,69.41
2018-09-26T03:27:21.408Z,69.40
2018-09-26T03:29:48.530Z,69.11
2018-09-26T03:32:15.764Z,69.17
2018-09-26T03:34:42.955Z,68.73
2018-09-26T03:37:10.081Z,68.01
2018-09-26T03:39:37.282Z,68.22
2018-09-26T03:42:04.438Z,68.44
2018-09-26T03:44:31.604Z,68.11
2018-09-26T03:46:58.733Z,68.35
2018-09-26T03:49:25.955Z,69.44
2018-09-26T03:51:53.106Z,69.94
2018-09-26T03:54:20.227Z,70.22
2018-09-26T03:56:47.358Z,70.32
2018-09-26T03:59:14.502Z,69.92
2018-09-26T04:01:41.645Z,69.22
2018-09-26T04:04:08.990Z,69.88
2018-09-26T04:06:36.213Z,70.17
2018-09-26T04:09:05.124Z,70.75
2018-09-26T04:11:32.260Z,70.20
2018-09-26T04:13:59.410Z,69.51
2018-09-26T04:16:26.598Z,69.81
2018-09-26T04:18:53.725Z,69.17
2018-09-26T04:21:20.874Z,68.80
2018-09-26T04:23:47.989Z,68.59
2018-09-26T04:26:15.233Z,68.47
2018-09-26T04:28:42.396Z,68.69
2018-09-26T04:31:09.692Z,68.28
2018-09-26T04:33:36.898Z,68.76
2018-09-26T04:36:04.297Z,69.05
2018-09-26T04:38:31.492Z,69.34
2018-09-26T04:40:58.646Z,69.66
2018-09-26T04:43:26.557Z,70.20
2018-09-26T04:45:53.723Z,69.83
2018-09-26T04:48:20.997Z,69.28
2018-09-26T04:50:48.135Z,69.48
2018-09-26T04:53:19.236Z,69.58
2018-09-26T04:55:46.699Z,69.50
2018-09-26T04:58:13.881Z,69.60
2018-09-26T05:00:41.181Z,68.90
2018-09-26T05:03:08.979Z,68.94
2018-09-26T05:05:36.137Z,68.79
2018-09-26T05:08:03.484Z,68.72
2018-09-26T05:10:31.091Z,67.94
2018-09-26T05:12:58.231Z,68.06
2018-09-26T05:15:25.398Z,67.51
2018-09-26T05:17:52.530Z,67.58
2018-09-26T05:20:19.649Z,67.38
2018-09-26T05:22:46.871Z,67.14
2018-09-26T05:25:13.979Z,67.60
2018-09-26T05:27:41.129Z,67.49
2018-09-26T05:30:08.308Z,67.83
2018-09-26T05:32:35.548Z,67.91
2018-09-26T05:35:02.756Z,67.96
2018-09-26T05:37:29.922Z,67.53
2018-09-26T05:39:57.137Z,68.00
2018-09-26T05:42:24.915Z,67.73
2018-09-26T05:44:52.063Z,68.26
2018-09-26T05:47:19.238Z,68.72
2018-09-26T05:49:47.051Z,69.16
2018-09-26T05:52:14.224Z,69.01
2018-09-26T05:54:41.499Z,68.87
2018-09-26T05:57:08.859Z,68.77
2018-09-26T05:59:36.167Z,68.66
2018-09-26T06:02:03.273Z,68.89
2018-09-26T06:04:30.541Z,67.94
2018-09-26T06:06:57.751Z,68.00
2018-09-26T06:09:25.003Z,68.02
2018-09-26T06:11:52.358Z,68.23
2018-09-26T06:14:20.063Z,68.25
2018-09-26T06:16:47.386Z,68.34
2018-09-26T06:19:14.768Z,68.33
2018-09-26T06:21:42.045Z,68.03
2018-09-26T06:24:09.641Z,67.72
2018-09-26T06:26:37.014Z,67.66
2018-09-26T06:29:04.293Z,67.47
2018-09-26T06:31:31.578Z,67.38
2018-09-26T06:33:58.943Z,67.21
2018-09-26T06:36:26.200Z,67.54
2018-09-26T06:38:53.563Z,67.78
2018-09-26T06:41:20.893Z,67.47
2018-09-26T06:43:48.271Z,67.51
2018-09-26T06:46:15.519Z,67.32
2018-09-26T06:48:42.770Z,67.24
2018-09-26T06:51:10.105Z,67.02
2018-09-26T06:53:37.375Z,67.03
2018-09-26T06:56:04.783Z,66.62
2018-09-26T06:58:32.182Z,66.62
2018-09-26T07:00:59.497Z,66.24
2018-09-26T07:03:26.726Z,66.06
2018-09-26T07:05:53.898Z,65.69
2018-09-26T07:08:21.266Z,65.14
2018-09-26T07:10:48.414Z,64.84
2018-09-26T07:13:15.936Z,64.84
2018-09-26T07:15:43.100Z,64.37
2018-09-26T07:18:10.291Z,64.65
2018-09-26T07:20:38.027Z,64.37
2018-09-26T07:23:05.329Z,64.48
2018-09-26T07:25:32.498Z,64.01
2018-09-26T07:28:00.141Z,63.81
2018-09-26T07:30:27.394Z,63.62
2018-09-26T07:32:54.631Z,63.51
2018-09-26T07:35:21.747Z,64.08
2018-09-26T07:37:48.986Z,63.53
2018-09-26T07:40:16.272Z,62.22
2018-09-26T07:42:43.497Z,62.34
2018-09-26T07:45:10.881Z,62.95
2018-09-26T07:47:38.271Z,63.00
2018-09-26T07:50:05.788Z,62.87
2018-09-26T07:52:33.242Z,62.56
2018-09-26T07:55:00.637Z,62.37
2018-09-26T07:57:27.806Z,61.76
2018-09-26T07:59:55.201Z,61.16
2018-09-26T08:02:22.439Z,60.04
2018-09-26T08:04:49.651Z,59.54
2018-09-26T08:07:16.944Z,59.33
2018-09-26T08:09:44.179Z,58.92
2018-09-26T08:12:11.415Z,58.69
2018-09-26T08:14:38.803Z,58.18
2018-09-26T08:17:05.971Z,58.28
2018-09-26T08:19:33.386Z,57.33
2018-09-26T08:22:00.621Z,56.72
2018-09-26T08:24:27.890Z,57.12
2018-09-26T08:26:55.194Z,55.98
2018-09-26T08:29:22.465Z,55.46
2018-09-26T08:31:49.850Z,53.80
2018-09-26T08:34:17.157Z,53.08
2018-09-26T08:36:44.356Z,52.14
2018-09-26T08:39:12.886Z,52.29
2018-09-26T08:41:40.171Z,52.65
2018-09-26T08:44:07.634Z,52.94
2018-09-26T08:46:34.840Z,52.45
2018-09-26T08:49:02.088Z,52.41
2018-09-26T08:51:29.374Z,51.48
2018-09-26T08:53:56.605Z,51.21
2018-09-26T08:56:23.845Z,50.82
2018-09-26T08:58:51.072Z,49.72
2018-09-26T09:01:24.117Z,50.28
2018-09-26T09:03:51.441Z,49.76
2018-09-26T09:06:18.827Z,50.54
2018-09-26T09:08:46.015Z,50.33
2018-09-26T09:11:13.363Z,50.25
2018-09-26T09:13:40.549Z,49.06
2018-09-26T09:16:08.077Z,49.26
2018-09-26T09:18:35.325Z,49.19
2018-09-26T09:21:03.819Z,49.24
2018-09-26T09:23:31.463Z,49.20
2018-09-26T09:25:58.676Z,47.74
2018-09-26T09:28:25.924Z,48.56
2018-09-26T09:30:53.254Z,48.94
2018-09-26T09:33:20.620Z,48.09
2018-09-26T09:35:47.928Z,48.88
2018-09-26T09:38:15.294Z,48.40
2018-09-26T09:40:42.528Z,48.38
2018-09-26T09:43:09.939Z,48.12
2018-09-26T09:45:37.454Z,47.65
2018-09-26T09:48:04.703Z,47.64
2018-09-26T09:50:31.962Z,47.63
2018-09-26T09:52:59.253Z,47.30
2018-09-26T09:55:26.547Z,47.71
2018-09-26T09:57:53.924Z,48.24
2018-09-26T10:00:25.706Z,47.20
2018-09-26T10:02:53.138Z,46.93
2018-09-26T10:05:20.241Z,46.09
2018-09-26T10:07:47.443Z,45.68
2018-09-26T10:10:14.653Z,46.46
2018-09-26T10:12:41.852Z,46.62
2018-09-26T10:15:09.099Z,46.06
2018-09-26T10:17:36.414Z,44.41
2018-09-26T10:20:03.749Z,44.94
2018-09-26T10:22:30.965Z,45.47
2018-09-26T10:24:58.292Z,44.12
2018-09-26T10:27:25.451Z,43.96
2018-09-26T10:29:52.806Z,42.70
2018-09-26T10:32:20.043Z,43.03
2018-09-26T10:34:47.376Z,43.11
2018-09-26T10:37:14.616Z,41.98
2018-09-26T10:39:41.857Z,41.91
2018-09-26T10:42:09.591Z,42.15
2018-09-26T10:44:36.860Z,42.25
2018-09-26T10:47:04.433Z,41.15
2018-09-26T10:49:32.454Z,40.50
2018-09-26T10:51:59.675Z,40.69
2018-09-26T10:54:26.864Z,41.32
2018-09-26T10:56:54.070Z,40.46
2018-09-26T10:59:21.368Z,38.89
2018-09-26T11:01:48.813Z,39.76
2018-09-26T11:04:16.716Z,38.47
2018-09-26T11:06:43.907Z,37.34
2018-09-26T11:09:11.494Z,37.47
2018-09-26T11:11:39.144Z,36.29
2018-09-26T11:14:06.448Z,36.21
2018-09-26T11:16:33.754Z,36.80
2018-09-26T11:19:01.339Z,37.23
2018-09-26T11:21:28.498Z,35.47
2018-09-26T11:23:55.871Z,36.88
2018-09-26T11:26:23.400Z,37.73
2018-09-26T11:28:50.664Z,36.29
2018-09-26T11:31:17.942Z,35.69
2018-09-26T11:33:45.756Z,34.87
2018-09-26T11:36:12.908Z,34.62
2018-09-26T11:38:40.131Z,34.63
2018-09-26T11:41:07.458Z,34.13
2018-09-26T11:43:34.662Z,33.76
2018-09-26T11:46:01.938Z,34.01
2018-09-26T11:48:29.192Z,33.88
2018-09-26T11:51:02.919Z,33.41
2018-09-26T11:53:30.555Z,33.81
2018-09-26T11:55:58.967Z,34.62
2018-09-26T11:58:26.423Z,33.90
2018-09-26T12:00:53.782Z,34.14
2018-09-26T12:03:22.117Z,33.40
2018-09-26T12:05:49.323Z,33.74
2018-09-26T12:08:16.621Z,33.98
2018-09-26T12:10:43.811Z,33.59
2018-09-26T12:13:11.084Z,33.73
2018-09-26T12:15:38.275Z,33.80
2018-09-26T12:18:05.587Z,34.06
2018-09-26T12:20:32.798Z,34.06
2018-09-26T12:23:00.072Z,33.51
2018-09-26T12:25:27.357Z,33.92
2018-09-26T12:27:54.667Z,33.63
2018-09-26T12:30:22.041Z,33.99
2018-09-26T12:32:49.186Z,33.70
2018-09-26T12:35:16.416Z,33.60
2018-09-26T12:37:43.720Z,33.17
2018-09-26T12:40:10.977Z,33.19
2018-09-26T12:42:39.248Z,34.57
2018-09-26T12:45:06.472Z,34.10
2018-09-26T12:47:33.816Z,34.03
2018-09-26T12:50:01.140Z,33.53
2018-09-26T12:52:28.412Z,33.18
2018-09-26T12:54:56.442Z,32.33
2018-09-26T12:57:23.820Z,33.13
2018-09-26T12:59:51.276Z,32.46
2018-09-26T13:02:18.657Z,32.17
2018-09-26T13:04:45.879Z,32.92
2018-09-26T13:07:13.211Z,31.47
2018-09-26T13:09:40.646Z,30.68
2018-09-26T13:12:08.009Z,30.85
2018-09-26T13:14:35.271Z,31.13
2018-09-26T13:17:02.768Z,30.97
2018-09-26T13:19:30.223Z,30.00
2018-09-26T13:21:57.886Z,30.80
2018-09-26T13:24:25.209Z,29.86
2018-09-26T13:26:52.434Z,30.42
2018-09-26T13:29:19.703Z,30.46
2018-09-26T13:31:47.101Z,30.31
2018-09-26T13:34:14.398Z,29.02
2018-09-26T13:36:41.601Z,29.64
2018-09-26T13:39:09.021Z,29.52
2018-09-26T13:41:36.253Z,29.40
2018-09-26T13:44:03.547Z,30.45
2018-09-26T13:46:30.803Z,31.72
2018-09-26T13:48:58.066Z,32.41
2018-09-26T13:51:25.343Z,32.49
2018-09-26T13:53:52.678Z,33.39
2018-09-26T13:56:19.907Z,33.02
2018-09-26T13:58:47.192Z,32.59
2018-09-26T14:01:14.411Z,33.61
2018-09-26T14:03:42.429Z,34.11
2018-09-26T14:06:09.706Z,33.95
2018-09-26T14:08:37.343Z,34.23
2018-09-26T14:11:04.612Z,34.10
2018-09-26T14:13:31.868Z,34.17
2018-09-26T14:15:59.169Z,34.05
2018-09-26T14:18:26.465Z,34.66
2018-09-26T14:20:53.686Z,34.68
2018-09-26T14:23:21.045Z,35.17
2018-09-26T14:25:48.659Z,33.81
2018-09-26T14:28:15.933Z,34.01
2018-09-26T14:30:43.383Z,33.71
2018-09-26T14:33:11.030Z,33.48
2018-09-26T14:35:38.264Z,32.73
2018-09-26T14:38:05.576Z,32.54
2018-09-26T14:40:32.770Z,31.32
2018-09-26T14:43:00.274Z,30.70
2018-09-26T14:45:27.606Z,30.39
2018-09-26T14:47:55.581Z,30.36
2018-09-26T14:50:23.162Z,30.80
2018-09-26T14:52:50.329Z,30.77
2018-09-26T14:55:17.460Z,29.99
2018-09-26T14:57:45.082Z,29.73
2018-09-26T15:00:13.221Z,29.91
2018-09-26T15:02:40.503Z,29.42
2018-09-26T15:05:07.947Z,27.85
2018-09-26T15:07:35.431Z,27.92
2018-09-26T15:10:02.618Z,27.58
2018-09-26T15:12:29.942Z,28.10
2018-09-26T15:14:57.126Z,27.03
2018-09-26T15:17:24.563Z,26.93
2018-09-26T15:19:51.784Z,27.51
2018-09-26T15:22:19.063Z,28.89
2018-09-26T15:24:46.393Z,27.87
2018-09-26T15:27:13.625Z,29.23
2018-09-26T15:29:40.830Z,31.22
2018-09-26T15:32:08.340Z,31.09
2018-09-26T15:34:35.712Z,31.20
2018-09-26T15:37:03.136Z,31.84
2018-09-26T15:39:30.406Z,33.35
2018-09-26T15:41:57.711Z,33.40
2018-09-26T15:44:25.090Z,33.11
2018-09-26T15:46:53.833Z,32.47
2018-09-26T15:49:21.072Z,32.79
2018-09-26T15:51:48.477Z,33.99
2018-09-26T15:54:15.808Z,33.97
2018-09-26T15:56:42.997Z,34.75
2018-09-26T15:59:10.597Z,34.32
2018-09-26T16:01:37.824Z,35.87
2018-09-26T16:04:05.061Z,35.49
2018-09-26T16:06:32.281Z,34.89
2018-09-26T16:08:59.562Z,35.56
2018-09-26T16:11:27.352Z,35.84
2018-09-26T16:13:54.527Z,36.37
2018-09-26T16:16:21.757Z,36.10
2018-09-26T16:18:49.110Z,36.18
2018-09-26T16:21:16.396Z,36.67
2018-09-26T16:23:43.645Z,36.70
2018-09-26T16:26:10.954Z,37.53
2018-09-26T16:28:38.117Z,36.92
2018-09-26T16:31:05.641Z,37.82
2018-09-26T16:33:32.949Z,38.18
2018-09-26T16:36:00.343Z,37.64
2018-09-26T16:38:27.753Z,37.13
2018-09-26T16:40:55.078Z,38.06
2018-09-26T16:43:22.396Z,37.82
2018-09-26T16:45:50.134Z,37.02
2018-09-26T16:48:17.345Z,37.66
2018-09-26T16:50:44.531Z,37.86
2018-09-26T16:53:11.766Z,39.62
2018-09-26T16:55:39.026Z,45.65
2018-09-26T16:58:06.274Z,44.76
2018-09-26T17:00:33.627Z,45.66
2018-09-26T17:03:01.038Z,47.43
2018-09-26T17:05:28.389Z,46.43
2018-09-26T17:07:55.632Z,47.39
2018-09-26T17:10:22.891Z,47.19
2018-09-26T17:12:50.096Z,46.94
2018-09-26T17:15:17.363Z,48.32
2018-09-26T17:17:44.605Z,48.07
2018-09-26T17:20:11.948Z,47.72
2018-09-26T17:22:39.373Z,49.14
2018-09-26T17:25:06.707Z,49.01
2018-09-26T17:27:34.021Z,49.95
2018-09-26T17:30:01.179Z,49.26
2018-09-26T17:32:28.407Z,48.89
2018-09-26T17:34:55.641Z,49.62
2018-09-26T17:37:22.953Z,49.60
2018-09-26T17:39:50.114Z,49.20
2018-09-26T17:42:17.561Z,47.99
2018-09-26T17:44:44.902Z,50.40
2018-09-26T17:47:12.438Z,50.79
2018-09-26T17:49:39.744Z,51.25
2018-09-26T17:52:06.943Z,51.38
2018-09-26T17:54:34.299Z,50.40
2018-09-26T17:57:01.468Z,51.83
2018-09-26T17:59:28.717Z,51.12
2018-09-26T18:01:56.136Z,51.23
2018-09-26T18:04:23.449Z,49.78
2018-09-26T18:06:58.249Z,51.81
2018-09-26T18:09:25.456Z,52.31
2018-09-26T18:11:52.604Z,52.58
2018-09-26T18:14:19.854Z,51.77
2018-09-26T18:16:47.094Z,53.18
2018-09-26T18:19:14.293Z,52.98
2018-09-26T18:21:41.487Z,54.16
2018-09-26T18:24:08.872Z,53.68
2018-09-26T18:26:36.126Z,56.46
2018-09-26T18:29:03.515Z,56.16
2018-09-26T18:31:30.864Z,54.96
2018-09-26T18:33:58.163Z,56.20
2018-09-26T18:36:25.570Z,55.98
2018-09-26T18:38:52.995Z,55.09
2018-09-26T18:41:20.154Z,55.20
2018-09-26T18:43:47.472Z,56.20
2018-09-26T18:46:16.464Z,54.54
2018-09-26T18:48:43.746Z,55.46
2018-09-26T18:51:11.447Z,54.02
2018-09-26T18:53:38.796Z,57.58
2018-09-26T18:56:06.163Z,56.88
2018-09-26T18:58:33.417Z,58.20
2018-09-26T19:01:00.696Z,56.53
2018-09-26T19:03:28.039Z,58.76
2018-09-26T19:05:55.370Z,58.45
2018-09-26T19:08:22.659Z,57.80
2018-09-26T19:10:49.931Z,57.90
2018-09-26T19:13:17.106Z,57.87
2018-09-26T19:15:44.341Z,56.57
2018-09-26T19:18:11.619Z,57.11
2018-09-26T19:20:39.077Z,56.64
2018-09-26T19:23:06.372Z,56.21
2018-09-26T19:25:33.672Z,55.13
2018-09-26T19:28:00.999Z,55.65
2018-09-26T19:30:28.409Z,55.68
2018-09-26T19:32:55.784Z,57.95
2018-09-26T19:35:23.092Z,57.48
2018-09-26T19:37:50.411Z,58.44
2018-09-26T19:40:17.754Z,57.90
2018-09-26T19:42:44.930Z,56.97
2018-09-26T19:45:12.290Z,56.34
2018-09-26T19:47:39.465Z,58.64
2018-09-26T19:50:06.762Z,58.08
2018-09-26T19:52:34.040Z,58.24
2018-09-26T19:55:01.414Z,57.73
2018-09-26T19:57:29.055Z,57.96
2018-09-26T19:59:56.385Z,56.31
2018-09-26T20:02:23.624Z,57.68
2018-09-26T20:04:50.867Z,57.35
2018-09-26T20:07:18.074Z,59.98
2018-09-26T20:09:45.267Z,59.95
2018-09-26T20:12:12.495Z,58.95
2018-09-26T20:14:39.697Z,57.47
2018-09-26T20:17:06.910Z,59.28
2018-09-26T20:19:35.207Z,57.11
2018-09-26T20:22:02.483Z,61.64
2018-09-26T20:24:30.692Z,61.06
2018-09-26T20:26:57.957Z,60.39
2018-09-26T20:29:25.388Z,60.21
2018-09-26T20:31:52.665Z,59.92
2018-09-26T20:34:19.879Z,59.41
2018-09-26T20:36:47.094Z,60.49
2018-09-26T20:39:14.354Z,59.04
2018-09-26T20:41:41.635Z,60.10
2018-09-26T20:44:09.078Z,59.50
2018-09-26T20:46:36.329Z,57.83
2018-09-26T20:49:03.562Z,59.32
2018-09-26T20:51:31.120Z,59.56
2018-09-26T20:53:58.291Z,58.30
2018-09-26T20:56:25.625Z,58.51
2018-09-26T20:58:52.835Z,58.48
2018-09-26T21:01:20.096Z,58.43
2018-09-26T21:03:47.283Z,57.67
2018-09-26T21:06:14.489Z,58.16
2018-09-26T21:08:41.789Z,57.08
2018-09-26T21:11:09.014Z,58.41
2018-09-26T21:13:36.258Z,58.41
2018-09-26T21:16:03.443Z,57.74
2018-09-26T21:18:30.702Z,59.01
2018-09-26T21:20:58.514Z,59.94
2018-09-26T21:23:25.781Z,59.64
2018-09-26T21:25:52.949Z,59.02
2018-09-26T21:28:20.169Z,61.80
2018-09-26T21:30:47.482Z,59.92
2018-09-26T21:33:14.739Z,60.78
2018-09-26T21:35:41.916Z,59.89
2018-09-26T21:38:09.109Z,58.56
2018-09-26T21:40:36.243Z,60.59
2018-09-26T21:43:03.434Z,59.30
2018-09-26T21:45:30.633Z,57.72
2018-09-26T21:47:57.958Z,58.87
2018-09-26T21:50:25.157Z,58.82
2018-09-26T21:52:52.393Z,60.00
2018-09-26T21:55:19.576Z,58.92
2018-09-26T21:57:46.745Z,61.04
2018-09-26T22:00:14.186Z,59.49
2018-09-26T22:02:41.456Z,57.52
2018-09-26T22:05:08.735Z,58.55
2018-09-26T22:07:36.029Z,61.21
2018-09-26T22:10:03.317Z,58.63
2018-09-26T22:12:30.674Z,60.72
2018-09-26T22:14:57.932Z,63.07
2018-09-26T22:17:25.276Z,64.14
2018-09-26T22:19:52.535Z,64.28
2018-09-26T22:22:19.765Z,64.82
2018-09-26T22:24:47.061Z,64.92
2018-09-26T22:27:14.408Z,65.75
2018-09-26T22:29:41.665Z,66.06
2018-09-26T22:32:08.859Z,67.28
2018-09-26T22:34:36.153Z,68.17
2018-09-26T22:37:03.314Z,68.86
2018-09-26T22:39:30.653Z,68.99
2018-09-26T22:41:57.828Z,68.79
2018-09-26T22:44:25.055Z,68.76
2018-09-26T22:46:52.265Z,68.68
2018-09-26T22:49:19.670Z,68.01
2018-09-26T22:51:46.927Z,68.62
2018-09-26T22:54:14.249Z,68.46
2018-09-26T22:56:41.919Z,68.70
2018-09-26T22:59:09.337Z,67.96
2018-09-26T23:01:36.553Z,67.90
2018-09-26T23:04:03.801Z,67.96
2018-09-26T23:06:31.069Z,68.26
2018-09-26T23:08:58.299Z,68.36
2018-09-26T23:11:25.646Z,68.00
2018-09-26T23:13:52.826Z,67.82
2018-09-26T23:16:20.460Z,68.12
2018-09-26T23:18:47.844Z,70.41
2018-09-26T23:21:15.129Z,70.71
2018-09-26T23:23:42.801Z,70.61
2018-09-26T23:26:10.012Z,71.46
2018-09-26T23:28:37.339Z,70.34
2018-09-26T23:31:04.791Z,70.19
2018-09-26T23:33:32.291Z,70.78
2018-09-26T23:35:59.667Z,70.30
2018-09-26T23:38:27.006Z,69.98
2018-09-26T23:40:54.438Z,69.52
2018-09-26T23:43:22.051Z,69.59
2018-09-26T23:45:49.497Z,69.88
2018-09-26T23:48:16.811Z,69.65
2018-09-26T23:50:44.094Z,70.13
2018-09-26T23:53:11.265Z,70.20
2018-09-26T23:55:38.523Z,70.04
2018-09-26T23:58:05.764Z,69.80
